Meath Environmental Platform

Observations for Trim Market St

Time AQI Temp °C Hum % Pres Pa CO μg/m³ H₂S μg/m³ NO μg/m³ NO₂ μg/m³ O₃ μg/m³ SO₂ μg/m³ PM1 μg/m³ PM2.5 μg/m³ PM10 μg/m³
Saturday 11 July 2026
11:11 1 36.7 29 66,584 0 0 0 0 32.79 0.7 0.71 4.43 4.87
11:07 1 36.4 30 66,588 0 0 0 1.89 30.62 0 0 3.87 4.06
11:06 1 36.4 30 66,560 0 0 0 5.39 25.85 0 0 3.87 4.06
11:03 1 36.3 30 66,525 0 0 0 0.08 26.2 0 0.71 3.86 4.24
11:00 1 36.2 30 66,513 0 0 0 0 0 0 0.71 3.85 4.24
10:53 1 35.9 30 66,491 0 0 0 0 45.03 0 0 3.31 3.65
10:52 1 35.9 30 66,487 0 0 0 0 26.37 0 0.71 3.86 4.25
10:51 1 35.8 30 66,480 0 0 0 0 9.98 0 1.43 4.4 4.84
10:50 1 35.8 30 66,461 0 0 0 3.27 0 0 0.71 3.84 4.22
10:49 1 35.8 30 66,449 0 0 0 9.65 40.19 0 2.14 4.92 5.41
10:48 1 35.7 30 66,431 0 0 0 10.41 42.59 0 0 3.3 3.63
10:46 1 35.7 30 66,410 0 0 0 0 8.4 0 0 3.84 4.22
10:44 1 35.5 31 66,429 0.07 0 0 21.46 12.52 0.37 0.71 4.35 4.78
10:41 1 35.4 30 66,445 0 0 0 0 32.16 0 0.71 3.84 4.23
10:40 1 35.4 30 66,431 0 0 0 0 0 0 1.43 3.84 4.22
10:38 1 35.3 30 66,414 0 0 0 0.38 39.09 0 0.71 4.37 4.81
10:30 1 35.2 30 66,404 0 0 0 0 28.16 0 0.71 3.84 4.23
10:28 1 35.2 30 66,386 0 0 0 0 18.09 0 0.71 3.84 4.22
10:26 1 35.2 30 66,341 0 0 0 0 39.84 0 0 3.3 3.63
10:23 1 35.2 31 66,339 0 0 0 0 16.5 0 0 3.82 4.2